sensor_id;sensor_type;location;lat;lon;timestamp;P1;durP1;ratioP1;P2;durP2;ratioP2
2874;SDS011;1445;52.600;13.328;2024-03-02T00:00:08;9.38;;;5.38;;
2874;SDS011;1445;52.600;13.328;2024-03-02T00:02:40;7.85;;;6.93;;
2874;SDS011;1445;52.600;13.328;2024-03-02T00:05:06;10.10;;;5.68;;
2874;SDS011;1445;52.600;13.328;2024-03-02T00:07:32;7.28;;;6.57;;
2874;SDS011;1445;52.600;13.328;2024-03-02T00:09:58;16.23;;;7.45;;
2874;SDS011;1445;52.600;13.328;2024-03-02T00:12:23;7.75;;;5.82;;
2874;SDS011;1445;52.600;13.328;2024-03-02T00:14:49;13.02;;;6.78;;
2874;SDS011;1445;52.600;13.328;2024-03-02T00:17:17;9.40;;;6.55;;
2874;SDS011;1445;52.600;13.328;2024-03-02T00:19:49;8.27;;;5.78;;
2874;SDS011;1445;52.600;13.328;2024-03-02T00:22:15;8.77;;;7.28;;
2874;SDS011;1445;52.600;13.328;2024-03-02T00:24:40;11.80;;;8.38;;
2874;SDS011;1445;52.600;13.328;2024-03-02T00:27:06;11.35;;;6.78;;
2874;SDS011;1445;52.600;13.328;2024-03-02T00:29:32;13.45;;;7.45;;
2874;SDS011;1445;52.600;13.328;2024-03-02T00:32:00;10.18;;;6.65;;
2874;SDS011;1445;52.600;13.328;2024-03-02T00:34:26;11.93;;;6.93;;
2874;SDS011;1445;52.600;13.328;2024-03-02T00:36:51;15.32;;;7.13;;
2874;SDS011;1445;52.600;13.328;2024-03-02T00:39:18;10.73;;;8.18;;
2874;SDS011;1445;52.600;13.328;2024-03-02T00:41:43;12.70;;;8.20;;
2874;SDS011;1445;52.600;13.328;2024-03-02T00:44:12;8.48;;;7.57;;
2874;SDS011;1445;52.600;13.328;2024-03-02T00:46:38;13.95;;;8.30;;
2874;SDS011;1445;52.600;13.328;2024-03-02T00:51:36;17.77;;;7.18;;
2874;SDS011;1445;52.600;13.328;2024-03-02T00:54:02;7.82;;;6.70;;
2874;SDS011;1445;52.600;13.328;2024-03-02T00:56:30;8.70;;;6.65;;
2874;SDS011;1445;52.600;13.328;2024-03-02T00:58:56;11.18;;;7.50;;
2874;SDS011;1445;52.600;13.328;2024-03-02T01:01:21;11.05;;;7.78;;
2874;SDS011;1445;52.600;13.328;2024-03-02T01:03:47;8.13;;;5.75;;
2874;SDS011;1445;52.600;13.328;2024-03-02T01:06:14;15.95;;;8.40;;
2874;SDS011;1445;52.600;13.328;2024-03-02T01:08:43;7.55;;;6.45;;
2874;SDS011;1445;52.600;13.328;2024-03-02T01:11:08;5.97;;;5.03;;
2874;SDS011;1445;52.600;13.328;2024-03-02T01:13:34;7.80;;;6.43;;
2874;SDS011;1445;52.600;13.328;2024-03-02T01:16:02;6.90;;;6.18;;
2874;SDS011;1445;52.600;13.328;2024-03-02T01:18:28;11.40;;;6.55;;
2874;SDS011;1445;52.600;13.328;2024-03-02T01:20:54;7.00;;;5.88;;
2874;SDS011;1445;52.600;13.328;2024-03-02T01:23:22;7.90;;;6.28;;
2874;SDS011;1445;52.600;13.328;2024-03-02T01:25:49;13.60;;;8.05;;
2874;SDS011;1445;52.600;13.328;2024-03-02T01:28:15;7.57;;;6.20;;
2874;SDS011;1445;52.600;13.328;2024-03-02T01:30:41;11.43;;;7.70;;
2874;SDS011;1445;52.600;13.328;2024-03-02T01:33:07;12.68;;;6.93;;
2874;SDS011;1445;52.600;13.328;2024-03-02T01:35:32;10.50;;;6.72;;
2874;SDS011;1445;52.600;13.328;2024-03-02T01:37:58;12.43;;;6.60;;
2874;SDS011;1445;52.600;13.328;2024-03-02T01:40:24;14.38;;;8.10;;
2874;SDS011;1445;52.600;13.328;2024-03-02T01:42:53;14.90;;;6.97;;
2874;SDS011;1445;52.600;13.328;2024-03-02T01:45:19;8.35;;;7.32;;
2874;SDS011;1445;52.600;13.328;2024-03-02T01:47:45;9.32;;;7.50;;
2874;SDS011;1445;52.600;13.328;2024-03-02T01:50:11;10.70;;;8.27;;
2874;SDS011;1445;52.600;13.328;2024-03-02T01:52:37;11.40;;;6.07;;
2874;SDS011;1445;52.600;13.328;2024-03-02T01:55:02;9.68;;;7.43;;
2874;SDS011;1445;52.600;13.328;2024-03-02T01:57:29;8.60;;;7.75;;
2874;SDS011;1445;52.600;13.328;2024-03-02T01:59:54;8.07;;;6.18;;
2874;SDS011;1445;52.600;13.328;2024-03-02T02:02:20;12.07;;;7.95;;
2874;SDS011;1445;52.600;13.328;2024-03-02T02:04:48;18.92;;;7.85;;
2874;SDS011;1445;52.600;13.328;2024-03-02T02:07:14;13.88;;;8.75;;
2874;SDS011;1445;52.600;13.328;2024-03-02T02:09:42;6.90;;;4.45;;
2874;SDS011;1445;52.600;13.328;2024-03-02T02:12:08;23.17;;;7.18;;
2874;SDS011;1445;52.600;13.328;2024-03-02T02:14:35;14.55;;;8.35;;
2874;SDS011;1445;52.600;13.328;2024-03-02T02:17:00;16.65;;;7.93;;
2874;SDS011;1445;52.600;13.328;2024-03-02T02:19:26;16.10;;;6.47;;
2874;SDS011;1445;52.600;13.328;2024-03-02T02:21:51;12.30;;;8.40;;
2874;SDS011;1445;52.600;13.328;2024-03-02T02:24:17;11.15;;;6.60;;
2874;SDS011;1445;52.600;13.328;2024-03-02T02:26:42;11.63;;;7.10;;
2874;SDS011;1445;52.600;13.328;2024-03-02T02:29:07;8.30;;;7.45;;
2874;SDS011;1445;52.600;13.328;2024-03-02T02:31:39;12.80;;;6.57;;
2874;SDS011;1445;52.600;13.328;2024-03-02T02:34:06;14.77;;;9.38;;
2874;SDS011;1445;52.600;13.328;2024-03-02T02:36:32;15.38;;;7.53;;
2874;SDS011;1445;52.600;13.328;2024-03-02T02:38:59;17.83;;;10.02;;
2874;SDS011;1445;52.600;13.328;2024-03-02T02:41:30;10.45;;;6.13;;
2874;SDS011;1445;52.600;13.328;2024-03-02T02:43:56;11.23;;;6.38;;
2874;SDS011;1445;52.600;13.328;2024-03-02T02:46:21;13.27;;;7.30;;
2874;SDS011;1445;52.600;13.328;2024-03-02T02:48:47;13.07;;;8.23;;
2874;SDS011;1445;52.600;13.328;2024-03-02T02:51:12;8.10;;;7.18;;
2874;SDS011;1445;52.600;13.328;2024-03-02T02:53:37;11.68;;;7.15;;
2874;SDS011;1445;52.600;13.328;2024-03-02T02:56:06;17.20;;;9.60;;
2874;SDS011;1445;52.600;13.328;2024-03-02T02:58:31;10.63;;;6.07;;
2874;SDS011;1445;52.600;13.328;2024-03-02T03:00:57;8.50;;;7.35;;
2874;SDS011;1445;52.600;13.328;2024-03-02T03:03:22;17.98;;;8.20;;
2874;SDS011;1445;52.600;13.328;2024-03-02T03:05:48;12.93;;;8.23;;
2874;SDS011;1445;52.600;13.328;2024-03-02T03:08:14;8.90;;;7.32;;
2874;SDS011;1445;52.600;13.328;2024-03-02T03:10:40;12.70;;;7.80;;
2874;SDS011;1445;52.600;13.328;2024-03-02T03:13:06;11.75;;;7.93;;
2874;SDS011;1445;52.600;13.328;2024-03-02T03:15:34;16.75;;;8.85;;
2874;SDS011;1445;52.600;13.328;2024-03-02T03:18:00;15.20;;;10.95;;
2874;SDS011;1445;52.600;13.328;2024-03-02T03:20:25;10.88;;;7.20;;
2874;SDS011;1445;52.600;13.328;2024-03-02T03:22:50;11.88;;;8.27;;
2874;SDS011;1445;52.600;13.328;2024-03-02T03:25:16;8.73;;;7.45;;
2874;SDS011;1445;52.600;13.328;2024-03-02T03:27:41;12.20;;;9.18;;
2874;SDS011;1445;52.600;13.328;2024-03-02T03:30:06;9.15;;;8.18;;
2874;SDS011;1445;52.600;13.328;2024-03-02T03:32:32;13.02;;;9.93;;
2874;SDS011;1445;52.600;13.328;2024-03-02T03:34:58;9.40;;;8.35;;
2874;SDS011;1445;52.600;13.328;2024-03-02T03:37:23;16.08;;;9.23;;
2874;SDS011;1445;52.600;13.328;2024-03-02T03:39:50;14.00;;;6.97;;
2874;SDS011;1445;52.600;13.328;2024-03-02T03:42:16;17.25;;;9.43;;
2874;SDS011;1445;52.600;13.328;2024-03-02T03:44:41;24.90;;;10.18;;
2874;SDS011;1445;52.600;13.328;2024-03-02T03:47:07;10.27;;;8.93;;
2874;SDS011;1445;52.600;13.328;2024-03-02T03:49:32;9.80;;;7.95;;
2874;SDS011;1445;52.600;13.328;2024-03-02T03:51:58;8.77;;;6.72;;
2874;SDS011;1445;52.600;13.328;2024-03-02T03:54:23;13.30;;;8.93;;
2874;SDS011;1445;52.600;13.328;2024-03-02T03:56:48;10.43;;;8.40;;
2874;SDS011;1445;52.600;13.328;2024-03-02T03:59:14;11.60;;;5.95;;
2874;SDS011;1445;52.600;13.328;2024-03-02T04:01:39;11.95;;;8.57;;
2874;SDS011;1445;52.600;13.328;2024-03-02T04:04:04;8.27;;;7.53;;
2874;SDS011;1445;52.600;13.328;2024-03-02T04:06:30;13.25;;;6.68;;
2874;SDS011;1445;52.600;13.328;2024-03-02T04:08:55;9.60;;;7.07;;
2874;SDS011;1445;52.600;13.328;2024-03-02T04:11:21;11.80;;;8.18;;
2874;SDS011;1445;52.600;13.328;2024-03-02T04:13:46;12.43;;;8.32;;
2874;SDS011;1445;52.600;13.328;2024-03-02T04:16:12;10.80;;;7.28;;
2874;SDS011;1445;52.600;13.328;2024-03-02T04:18:37;17.70;;;7.57;;
2874;SDS011;1445;52.600;13.328;2024-03-02T04:21:04;9.57;;;8.02;;
2874;SDS011;1445;52.600;13.328;2024-03-02T04:23:30;15.65;;;7.55;;
2874;SDS011;1445;52.600;13.328;2024-03-02T04:25:55;7.78;;;7.00;;
2874;SDS011;1445;52.600;13.328;2024-03-02T04:28:21;9.35;;;7.32;;
2874;SDS011;1445;52.600;13.328;2024-03-02T04:30:46;9.95;;;8.32;;
2874;SDS011;1445;52.600;13.328;2024-03-02T04:33:11;19.27;;;8.32;;
2874;SDS011;1445;52.600;13.328;2024-03-02T04:35:37;9.82;;;6.78;;
2874;SDS011;1445;52.600;13.328;2024-03-02T04:38:02;12.30;;;6.93;;
2874;SDS011;1445;52.600;13.328;2024-03-02T04:40:28;14.55;;;9.93;;
2874;SDS011;1445;52.600;13.328;2024-03-02T04:42:53;9.07;;;7.05;;
2874;SDS011;1445;52.600;13.328;2024-03-02T04:45:19;12.07;;;9.93;;
2874;SDS011;1445;52.600;13.328;2024-03-02T04:47:44;11.43;;;8.05;;
2874;SDS011;1445;52.600;13.328;2024-03-02T04:50:10;15.70;;;7.45;;
2874;SDS011;1445;52.600;13.328;2024-03-02T04:52:35;14.05;;;9.60;;
2874;SDS011;1445;52.600;13.328;2024-03-02T04:55:01;12.88;;;8.20;;
2874;SDS011;1445;52.600;13.328;2024-03-02T04:57:50;10.30;;;8.20;;
2874;SDS011;1445;52.600;13.328;2024-03-02T05:00:16;21.80;;;9.73;;
2874;SDS011;1445;52.600;13.328;2024-03-02T05:02:42;12.48;;;8.10;;
2874;SDS011;1445;52.600;13.328;2024-03-02T05:05:07;11.00;;;7.75;;
2874;SDS011;1445;52.600;13.328;2024-03-02T05:07:33;9.68;;;7.50;;
2874;SDS011;1445;52.600;13.328;2024-03-02T05:09:58;14.50;;;6.10;;
2874;SDS011;1445;52.600;13.328;2024-03-02T05:12:24;12.82;;;7.55;;
2874;SDS011;1445;52.600;13.328;2024-03-02T05:15:11;10.02;;;7.45;;
2874;SDS011;1445;52.600;13.328;2024-03-02T05:17:39;18.20;;;7.40;;
2874;SDS011;1445;52.600;13.328;2024-03-02T05:20:05;10.13;;;7.68;;
2874;SDS011;1445;52.600;13.328;2024-03-02T05:22:33;7.93;;;7.10;;
2874;SDS011;1445;52.600;13.328;2024-03-02T05:24:59;11.02;;;8.18;;
2874;SDS011;1445;52.600;13.328;2024-03-02T05:27:26;13.68;;;7.95;;
2874;SDS011;1445;52.600;13.328;2024-03-02T05:29:51;9.88;;;7.32;;
2874;SDS011;1445;52.600;13.328;2024-03-02T05:32:17;7.10;;;6.45;;
2874;SDS011;1445;52.600;13.328;2024-03-02T05:34:42;13.45;;;7.05;;
2874;SDS011;1445;52.600;13.328;2024-03-02T05:37:08;12.35;;;6.30;;
2874;SDS011;1445;52.600;13.328;2024-03-02T05:39:33;14.43;;;8.32;;
2874;SDS011;1445;52.600;13.328;2024-03-02T05:41:59;8.20;;;6.90;;
2874;SDS011;1445;52.600;13.328;2024-03-02T05:44:24;16.20;;;8.02;;
2874;SDS011;1445;52.600;13.328;2024-03-02T05:46:49;9.75;;;8.00;;
2874;SDS011;1445;52.600;13.328;2024-03-02T05:49:15;20.45;;;7.72;;
2874;SDS011;1445;52.600;13.328;2024-03-02T05:51:40;9.77;;;7.80;;
2874;SDS011;1445;52.600;13.328;2024-03-02T05:54:06;14.35;;;9.57;;
2874;SDS011;1445;52.600;13.328;2024-03-02T05:56:32;18.77;;;6.22;;
2874;SDS011;1445;52.600;13.328;2024-03-02T05:58:57;12.60;;;9.20;;
2874;SDS011;1445;52.600;13.328;2024-03-02T06:01:33;13.35;;;7.97;;
2874;SDS011;1445;52.600;13.328;2024-03-02T06:03:59;11.27;;;7.88;;
2874;SDS011;1445;52.600;13.328;2024-03-02T06:06:25;17.42;;;8.85;;
2874;SDS011;1445;52.600;13.328;2024-03-02T06:08:51;13.50;;;9.05;;
2874;SDS011;1445;52.600;13.328;2024-03-02T06:11:17;10.55;;;7.32;;
2874;SDS011;1445;52.600;13.328;2024-03-02T06:13:44;14.68;;;8.23;;
2874;SDS011;1445;52.600;13.328;2024-03-02T06:16:09;12.52;;;7.72;;
2874;SDS011;1445;52.600;13.328;2024-03-02T06:18:35;11.23;;;8.52;;
2874;SDS011;1445;52.600;13.328;2024-03-02T06:21:00;13.57;;;11.27;;
2874;SDS011;1445;52.600;13.328;2024-03-02T06:23:28;13.88;;;10.43;;
2874;SDS011;1445;52.600;13.328;2024-03-02T06:25:54;14.00;;;9.20;;
2874;SDS011;1445;52.600;13.328;2024-03-02T06:28:19;13.02;;;8.85;;
2874;SDS011;1445;52.600;13.328;2024-03-02T06:30:45;15.40;;;9.90;;
2874;SDS011;1445;52.600;13.328;2024-03-02T06:33:11;24.10;;;8.98;;
2874;SDS011;1445;52.600;13.328;2024-03-02T06:35:37;14.05;;;9.90;;
2874;SDS011;1445;52.600;13.328;2024-03-02T06:38:02;11.20;;;8.93;;
2874;SDS011;1445;52.600;13.328;2024-03-02T06:40:28;10.55;;;7.55;;
2874;SDS011;1445;52.600;13.328;2024-03-02T06:42:53;17.73;;;9.85;;
2874;SDS011;1445;52.600;13.328;2024-03-02T06:45:19;13.07;;;7.35;;
2874;SDS011;1445;52.600;13.328;2024-03-02T06:47:44;14.65;;;9.48;;
2874;SDS011;1445;52.600;13.328;2024-03-02T06:50:10;25.15;;;10.85;;
2874;SDS011;1445;52.600;13.328;2024-03-02T06:52:36;9.63;;;8.00;;
2874;SDS011;1445;52.600;13.328;2024-03-02T06:55:01;20.67;;;11.02;;
2874;SDS011;1445;52.600;13.328;2024-03-02T06:57:29;17.35;;;9.70;;
2874;SDS011;1445;52.600;13.328;2024-03-02T06:59:54;8.63;;;7.72;;
2874;SDS011;1445;52.600;13.328;2024-03-02T07:02:23;13.30;;;8.75;;
2874;SDS011;1445;52.600;13.328;2024-03-02T07:04:54;18.05;;;7.00;;
2874;SDS011;1445;52.600;13.328;2024-03-02T07:07:20;11.93;;;8.30;;
2874;SDS011;1445;52.600;13.328;2024-03-02T07:09:45;13.18;;;8.70;;
2874;SDS011;1445;52.600;13.328;2024-03-02T07:12:12;16.73;;;9.38;;
2874;SDS011;1445;52.600;13.328;2024-03-02T07:14:37;18.77;;;7.68;;
2874;SDS011;1445;52.600;13.328;2024-03-02T07:17:21;11.10;;;8.52;;
2874;SDS011;1445;52.600;13.328;2024-03-02T07:19:46;19.50;;;7.75;;
2874;SDS011;1445;52.600;13.328;2024-03-02T07:22:12;13.95;;;9.68;;
2874;SDS011;1445;52.600;13.328;2024-03-02T07:24:44;8.68;;;7.88;;
2874;SDS011;1445;52.600;13.328;2024-03-02T07:27:11;17.17;;;9.73;;
2874;SDS011;1445;52.600;13.328;2024-03-02T07:29:37;13.70;;;8.88;;
2874;SDS011;1445;52.600;13.328;2024-03-02T07:32:04;18.67;;;8.38;;
2874;SDS011;1445;52.600;13.328;2024-03-02T07:34:30;13.63;;;9.15;;
2874;SDS011;1445;52.600;13.328;2024-03-02T07:36:55;15.15;;;7.40;;
2874;SDS011;1445;52.600;13.328;2024-03-02T07:39:21;10.20;;;8.20;;
2874;SDS011;1445;52.600;13.328;2024-03-02T07:41:47;17.27;;;8.88;;
2874;SDS011;1445;52.600;13.328;2024-03-02T07:44:13;11.10;;;8.73;;
2874;SDS011;1445;52.600;13.328;2024-03-02T07:46:42;17.48;;;8.73;;
2874;SDS011;1445;52.600;13.328;2024-03-02T07:49:08;11.32;;;8.57;;
2874;SDS011;1445;52.600;13.328;2024-03-02T07:51:34;8.55;;;6.78;;
2874;SDS011;1445;52.600;13.328;2024-03-02T07:53:59;18.45;;;8.98;;
2874;SDS011;1445;52.600;13.328;2024-03-02T07:56:25;13.82;;;8.25;;
2874;SDS011;1445;52.600;13.328;2024-03-02T07:58:51;18.85;;;9.88;;
2874;SDS011;1445;52.600;13.328;2024-03-02T08:01:16;9.55;;;7.57;;
2874;SDS011;1445;52.600;13.328;2024-03-02T08:03:42;19.90;;;10.25;;
2874;SDS011;1445;52.600;13.328;2024-03-02T08:06:13;15.60;;;11.38;;
2874;SDS011;1445;52.600;13.328;2024-03-02T08:08:40;16.10;;;7.32;;
2874;SDS011;1445;52.600;13.328;2024-03-02T08:11:05;15.88;;;8.90;;
2874;SDS011;1445;52.600;13.328;2024-03-02T08:13:31;20.17;;;9.05;;
2874;SDS011;1445;52.600;13.328;2024-03-02T08:15:56;10.85;;;8.68;;
2874;SDS011;1445;52.600;13.328;2024-03-02T08:18:22;20.25;;;9.80;;
2874;SDS011;1445;52.600;13.328;2024-03-02T08:20:47;10.07;;;6.00;;
2874;SDS011;1445;52.600;13.328;2024-03-02T08:23:13;17.13;;;9.95;;
2874;SDS011;1445;52.600;13.328;2024-03-02T08:25:38;12.55;;;6.93;;
2874;SDS011;1445;52.600;13.328;2024-03-02T08:28:03;16.42;;;8.43;;
2874;SDS011;1445;52.600;13.328;2024-03-02T08:30:29;16.42;;;10.05;;
2874;SDS011;1445;52.600;13.328;2024-03-02T08:32:55;11.93;;;6.85;;
2874;SDS011;1445;52.600;13.328;2024-03-02T08:35:20;17.35;;;10.70;;
2874;SDS011;1445;52.600;13.328;2024-03-02T08:37:47;17.50;;;8.50;;
2874;SDS011;1445;52.600;13.328;2024-03-02T08:40:13;16.63;;;8.57;;
2874;SDS011;1445;52.600;13.328;2024-03-02T08:42:38;11.45;;;6.35;;
2874;SDS011;1445;52.600;13.328;2024-03-02T08:45:04;10.80;;;7.38;;
2874;SDS011;1445;52.600;13.328;2024-03-02T08:47:30;18.60;;;10.10;;
2874;SDS011;1445;52.600;13.328;2024-03-02T08:49:55;11.27;;;7.25;;
2874;SDS011;1445;52.600;13.328;2024-03-02T08:52:20;10.27;;;8.00;;
2874;SDS011;1445;52.600;13.328;2024-03-02T08:54:46;25.42;;;7.43;;
2874;SDS011;1445;52.600;13.328;2024-03-02T08:57:11;21.85;;;9.65;;
2874;SDS011;1445;52.600;13.328;2024-03-02T08:59:36;7.20;;;6.50;;
2874;SDS011;1445;52.600;13.328;2024-03-02T09:02:02;8.70;;;6.82;;
2874;SDS011;1445;52.600;13.328;2024-03-02T09:04:28;13.50;;;8.80;;
2874;SDS011;1445;52.600;13.328;2024-03-02T09:06:54;12.32;;;7.90;;
2874;SDS011;1445;52.600;13.328;2024-03-02T09:09:19;12.70;;;6.15;;
2874;SDS011;1445;52.600;13.328;2024-03-02T09:11:45;12.32;;;6.95;;
2874;SDS011;1445;52.600;13.328;2024-03-02T09:14:11;12.82;;;8.15;;
2874;SDS011;1445;52.600;13.328;2024-03-02T09:16:37;12.75;;;7.95;;
2874;SDS011;1445;52.600;13.328;2024-03-02T09:19:03;14.50;;;9.13;;
2874;SDS011;1445;52.600;13.328;2024-03-02T09:21:28;16.75;;;8.75;;
2874;SDS011;1445;52.600;13.328;2024-03-02T09:23:55;18.77;;;7.35;;
2874;SDS011;1445;52.600;13.328;2024-03-02T09:26:20;18.75;;;9.10;;
2874;SDS011;1445;52.600;13.328;2024-03-02T09:28:46;13.15;;;9.88;;
2874;SDS011;1445;52.600;13.328;2024-03-02T09:31:11;14.32;;;7.65;;
2874;SDS011;1445;52.600;13.328;2024-03-02T09:33:37;14.98;;;9.15;;
2874;SDS011;1445;52.600;13.328;2024-03-02T09:36:04;7.72;;;5.70;;
2874;SDS011;1445;52.600;13.328;2024-03-02T09:38:31;11.60;;;7.45;;
2874;SDS011;1445;52.600;13.328;2024-03-02T09:40:59;10.15;;;7.65;;
2874;SDS011;1445;52.600;13.328;2024-03-02T09:43:26;17.02;;;8.68;;
2874;SDS011;1445;52.600;13.328;2024-03-02T09:45:51;11.85;;;7.78;;
2874;SDS011;1445;52.600;13.328;2024-03-02T09:48:17;17.20;;;8.20;;
2874;SDS011;1445;52.600;13.328;2024-03-02T09:50:45;17.13;;;8.38;;
2874;SDS011;1445;52.600;13.328;2024-03-02T09:53:11;14.43;;;8.38;;
2874;SDS011;1445;52.600;13.328;2024-03-02T09:55:37;19.15;;;8.73;;
2874;SDS011;1445;52.600;13.328;2024-03-02T09:58:03;13.98;;;6.65;;
2874;SDS011;1445;52.600;13.328;2024-03-02T10:00:29;8.13;;;5.60;;
2874;SDS011;1445;52.600;13.328;2024-03-02T10:02:54;10.98;;;6.30;;
2874;SDS011;1445;52.600;13.328;2024-03-02T10:05:26;9.10;;;7.40;;
2874;SDS011;1445;52.600;13.328;2024-03-02T10:08:00;12.52;;;6.72;;
2874;SDS011;1445;52.600;13.328;2024-03-02T10:10:35;9.70;;;5.40;;
2874;SDS011;1445;52.600;13.328;2024-03-02T10:13:10;13.68;;;6.82;;
2874;SDS011;1445;52.600;13.328;2024-03-02T10:15:37;7.88;;;6.10;;
2874;SDS011;1445;52.600;13.328;2024-03-02T10:18:06;10.32;;;8.40;;
2874;SDS011;1445;52.600;13.328;2024-03-02T10:20:34;22.90;;;7.22;;
2874;SDS011;1445;52.600;13.328;2024-03-02T10:23:09;6.10;;;5.07;;
2874;SDS011;1445;52.600;13.328;2024-03-02T10:25:36;12.27;;;7.38;;
2874;SDS011;1445;52.600;13.328;2024-03-02T10:28:02;14.43;;;7.82;;
2874;SDS011;1445;52.600;13.328;2024-03-02T10:30:30;8.38;;;6.57;;
2874;SDS011;1445;52.600;13.328;2024-03-02T10:32:55;9.98;;;6.45;;
2874;SDS011;1445;52.600;13.328;2024-03-02T10:35:23;6.32;;;5.55;;
2874;SDS011;1445;52.600;13.328;2024-03-02T10:37:50;7.75;;;5.85;;
2874;SDS011;1445;52.600;13.328;2024-03-02T10:40:17;9.55;;;5.55;;
2874;SDS011;1445;52.600;13.328;2024-03-02T10:42:43;9.82;;;6.10;;
2874;SDS011;1445;52.600;13.328;2024-03-02T10:45:10;12.40;;;7.53;;
2874;SDS011;1445;52.600;13.328;2024-03-02T10:47:37;11.48;;;5.93;;
2874;SDS011;1445;52.600;13.328;2024-03-02T10:50:04;11.48;;;5.80;;
2874;SDS011;1445;52.600;13.328;2024-03-02T10:52:34;11.88;;;6.32;;
2874;SDS011;1445;52.600;13.328;2024-03-02T10:55:03;9.65;;;6.40;;
2874;SDS011;1445;52.600;13.328;2024-03-02T11:00:33;8.52;;;5.15;;
2874;SDS011;1445;52.600;13.328;2024-03-02T11:03:06;6.18;;;4.95;;
2874;SDS011;1445;52.600;13.328;2024-03-02T11:08:08;6.13;;;5.40;;
2874;SDS011;1445;52.600;13.328;2024-03-02T11:10:37;5.18;;;4.13;;
2874;SDS011;1445;52.600;13.328;2024-03-02T11:13:16;9.63;;;4.97;;
2874;SDS011;1445;52.600;13.328;2024-03-02T11:15:47;5.95;;;3.92;;
2874;SDS011;1445;52.600;13.328;2024-03-02T11:18:14;7.30;;;3.97;;
2874;SDS011;1445;52.600;13.328;2024-03-02T11:20:40;6.90;;;4.85;;
2874;SDS011;1445;52.600;13.328;2024-03-02T11:23:07;9.27;;;5.45;;
2874;SDS011;1445;52.600;13.328;2024-03-02T11:25:34;9.55;;;5.13;;
2874;SDS011;1445;52.600;13.328;2024-03-02T11:28:01;6.55;;;4.18;;
2874;SDS011;1445;52.600;13.328;2024-03-02T11:32:59;9.27;;;4.43;;
2874;SDS011;1445;52.600;13.328;2024-03-02T11:35:25;9.50;;;5.30;;
2874;SDS011;1445;52.600;13.328;2024-03-02T11:37:53;5.65;;;3.80;;
2874;SDS011;1445;52.600;13.328;2024-03-02T11:40:22;7.22;;;4.13;;
2874;SDS011;1445;52.600;13.328;2024-03-02T11:42:48;6.90;;;3.80;;
2874;SDS011;1445;52.600;13.328;2024-03-02T11:45:17;10.13;;;5.13;;
2874;SDS011;1445;52.600;13.328;2024-03-02T11:47:50;4.80;;;3.53;;
2874;SDS011;1445;52.600;13.328;2024-03-02T11:52:55;6.93;;;3.70;;
2874;SDS011;1445;52.600;13.328;2024-03-02T11:55:21;5.28;;;4.20;;
2874;SDS011;1445;52.600;13.328;2024-03-02T11:57:47;5.50;;;3.40;;
2874;SDS011;1445;52.600;13.328;2024-03-02T12:00:17;13.65;;;5.55;;
2874;SDS011;1445;52.600;13.328;2024-03-02T12:02:43;6.30;;;2.80;;
2874;SDS011;1445;52.600;13.328;2024-03-02T12:05:14;3.75;;;3.15;;
2874;SDS011;1445;52.600;13.328;2024-03-02T12:07:41;8.57;;;3.28;;
2874;SDS011;1445;52.600;13.328;2024-03-02T12:10:08;9.35;;;5.18;;
2874;SDS011;1445;52.600;13.328;2024-03-02T12:12:34;6.28;;;4.13;;
2874;SDS011;1445;52.600;13.328;2024-03-02T12:14:59;9.43;;;3.70;;
2874;SDS011;1445;52.600;13.328;2024-03-02T12:17:25;4.72;;;3.47;;
2874;SDS011;1445;52.600;13.328;2024-03-02T12:19:51;6.47;;;3.72;;
2874;SDS011;1445;52.600;13.328;2024-03-02T12:22:16;9.15;;;4.65;;
2874;SDS011;1445;52.600;13.328;2024-03-02T12:24:42;4.03;;;2.85;;
2874;SDS011;1445;52.600;13.328;2024-03-02T12:27:12;8.18;;;3.67;;
2874;SDS011;1445;52.600;13.328;2024-03-02T12:29:38;6.38;;;4.07;;
2874;SDS011;1445;52.600;13.328;2024-03-02T12:32:04;3.53;;;3.15;;
2874;SDS011;1445;52.600;13.328;2024-03-02T12:34:30;4.68;;;3.72;;
2874;SDS011;1445;52.600;13.328;2024-03-02T12:36:56;3.78;;;2.92;;
2874;SDS011;1445;52.600;13.328;2024-03-02T12:39:21;9.68;;;4.00;;
2874;SDS011;1445;52.600;13.328;2024-03-02T12:41:48;4.28;;;3.88;;
2874;SDS011;1445;52.600;13.328;2024-03-02T12:44:16;3.60;;;2.80;;
2874;SDS011;1445;52.600;13.328;2024-03-02T12:46:42;3.65;;;3.08;;
2874;SDS011;1445;52.600;13.328;2024-03-02T12:49:09;5.78;;;3.47;;
2874;SDS011;1445;52.600;13.328;2024-03-02T12:51:41;5.47;;;3.58;;
2874;SDS011;1445;52.600;13.328;2024-03-02T12:54:10;7.65;;;4.15;;
2874;SDS011;1445;52.600;13.328;2024-03-02T12:56:36;7.72;;;3.75;;
2874;SDS011;1445;52.600;13.328;2024-03-02T12:59:02;5.07;;;3.38;;
2874;SDS011;1445;52.600;13.328;2024-03-02T13:01:28;4.85;;;3.05;;
2874;SDS011;1445;52.600;13.328;2024-03-02T13:03:54;6.45;;;3.10;;
2874;SDS011;1445;52.600;13.328;2024-03-02T13:06:23;7.07;;;3.75;;
2874;SDS011;1445;52.600;13.328;2024-03-02T13:08:52;4.88;;;2.88;;
2874;SDS011;1445;52.600;13.328;2024-03-02T13:11:18;5.53;;;2.95;;
2874;SDS011;1445;52.600;13.328;2024-03-02T13:13:44;8.73;;;3.55;;
2874;SDS011;1445;52.600;13.328;2024-03-02T13:16:10;8.00;;;4.13;;
2874;SDS011;1445;52.600;13.328;2024-03-02T13:18:36;8.60;;;3.53;;
2874;SDS011;1445;52.600;13.328;2024-03-02T13:21:03;8.38;;;3.67;;
2874;SDS011;1445;52.600;13.328;2024-03-02T13:23:29;6.75;;;3.45;;
2874;SDS011;1445;52.600;13.328;2024-03-02T13:25:56;3.80;;;3.42;;
2874;SDS011;1445;52.600;13.328;2024-03-02T13:28:23;5.45;;;3.40;;
2874;SDS011;1445;52.600;13.328;2024-03-02T13:30:49;5.88;;;4.07;;
2874;SDS011;1445;52.600;13.328;2024-03-02T13:33:14;5.68;;;2.90;;
2874;SDS011;1445;52.600;13.328;2024-03-02T13:35:40;5.45;;;2.53;;
2874;SDS011;1445;52.600;13.328;2024-03-02T13:38:05;5.45;;;3.90;;
2874;SDS011;1445;52.600;13.328;2024-03-02T13:40:31;4.85;;;3.78;;
2874;SDS011;1445;52.600;13.328;2024-03-02T13:43:00;13.57;;;2.92;;
2874;SDS011;1445;52.600;13.328;2024-03-02T13:45:26;4.22;;;3.08;;
2874;SDS011;1445;52.600;13.328;2024-03-02T13:47:52;8.13;;;2.97;;
2874;SDS011;1445;52.600;13.328;2024-03-02T13:50:18;3.28;;;2.70;;
2874;SDS011;1445;52.600;13.328;2024-03-02T13:52:43;5.10;;;3.70;;
2874;SDS011;1445;52.600;13.328;2024-03-02T13:55:09;4.38;;;3.25;;
2874;SDS011;1445;52.600;13.328;2024-03-02T13:57:34;3.65;;;2.33;;
2874;SDS011;1445;52.600;13.328;2024-03-02T14:00:00;6.30;;;3.25;;
2874;SDS011;1445;52.600;13.328;2024-03-02T14:02:26;7.35;;;3.45;;
2874;SDS011;1445;52.600;13.328;2024-03-02T14:04:52;5.72;;;2.45;;
2874;SDS011;1445;52.600;13.328;2024-03-02T14:07:17;8.70;;;3.20;;
2874;SDS011;1445;52.600;13.328;2024-03-02T14:09:42;8.40;;;3.13;;
2874;SDS011;1445;52.600;13.328;2024-03-02T14:12:08;5.32;;;2.25;;
2874;SDS011;1445;52.600;13.328;2024-03-02T14:14:34;3.13;;;2.30;;
2874;SDS011;1445;52.600;13.328;2024-03-02T14:17:00;6.22;;;3.22;;
2874;SDS011;1445;52.600;13.328;2024-03-02T14:19:28;2.13;;;1.92;;
2874;SDS011;1445;52.600;13.328;2024-03-02T14:21:54;3.17;;;2.45;;
2874;SDS011;1445;52.600;13.328;2024-03-02T14:24:19;6.38;;;2.20;;
2874;SDS011;1445;52.600;13.328;2024-03-02T14:26:48;2.20;;;2.00;;
2874;SDS011;1445;52.600;13.328;2024-03-02T14:29:14;5.07;;;2.58;;
2874;SDS011;1445;52.600;13.328;2024-03-02T14:31:40;3.25;;;2.95;;
2874;SDS011;1445;52.600;13.328;2024-03-02T14:34:06;2.55;;;2.28;;
2874;SDS011;1445;52.600;13.328;2024-03-02T14:36:31;2.85;;;2.42;;
2874;SDS011;1445;52.600;13.328;2024-03-02T14:38:57;3.70;;;2.60;;
2874;SDS011;1445;52.600;13.328;2024-03-02T14:41:22;4.82;;;2.92;;
2874;SDS011;1445;52.600;13.328;2024-03-02T14:43:51;1.80;;;1.58;;
2874;SDS011;1445;52.600;13.328;2024-03-02T14:46:16;2.30;;;1.90;;
2874;SDS011;1445;52.600;13.328;2024-03-02T14:48:42;4.15;;;2.35;;
2874;SDS011;1445;52.600;13.328;2024-03-02T14:51:09;2.80;;;1.52;;
2874;SDS011;1445;52.600;13.328;2024-03-02T14:53:35;3.40;;;2.28;;
2874;SDS011;1445;52.600;13.328;2024-03-02T14:56:04;3.08;;;1.83;;
2874;SDS011;1445;52.600;13.328;2024-03-02T14:58:30;3.30;;;2.20;;
2874;SDS011;1445;52.600;13.328;2024-03-02T15:00:55;2.65;;;1.48;;